Littlesburg, West Virginia
Current Conditions -  °F | °C
As of 3:52 PM on Saturday 20 Dec 2014 (Local Time) from KBLF Reporting Station
Haze Haze  
Wind Chill:   Ceiling: 400
Heat Index:   Visibility: 3mi
Dew Point:   Wind: 0mph
Humidity: 86%   Direction: NA
Pressure: 30.13"   Gusts: NA
Location:  37.2994°N, 81.226°W
Report Text: KBLF 202052Z AUTO 00000KT 3SM BR OVC004 02/00 A3013 RMK AO2 CIG 003V008 SLP221 60001 T00220000 56002
Loading
Personal Weather Stations






























Interactive Weather Map New forecast layout! Learn more

10-Day Weather Forecast

Advertisements
Track Severe Weather on mobile